Time;durP1;ratioP1;P1;durP2;ratioP2;P2;SDS_P1;SDS_P2;PMS_P1;PMS_P2;Temp;Humidity;BMP_temperature;BMP_pressure;BME280_temperature;BME280_humidity;BME280_pressure;Samples;Min_cycle;Max_cycle;Signal;HPM_P1;HPM_P2
2023/02/03 00:01:59;;;;;;;2.10;1.10;;;;;;;-145.69;100.00;52626.59;5120559;28;20200;-85
2023/02/03 00:04:26;;;;;;;0.80;0.80;;;;;;;-145.69;100.00;52662.22;5120798;28;20587;-85
2023/02/03 00:06:53;;;;;;;4.97;0.90;;;;;;;-145.69;100.00;52642.44;5120699;28;20239;-84
2023/02/03 00:09:20;;;;;;;6.33;1.07;;;;;;;-145.69;100.00;52618.66;5120222;28;20193;-84
2023/02/03 00:11:49;;;;;;;2.67;1.10;;;;;;;-145.69;100.00;52650.34;5120965;27;20212;-83
2023/02/03 00:14:16;;;;;;;3.27;1.00;;;;;;;-145.69;100.00;52650.34;5121111;27;20628;-84
2023/02/03 00:16:42;;;;;;;1.97;1.00;;;;;;;-145.69;100.00;52646.41;5120594;27;20207;-84
2023/02/03 00:19:09;;;;;;;4.93;0.83;;;;;;;-145.69;100.00;52638.47;5120196;27;20675;-85
2023/02/03 00:21:37;;;;;;;1.23;0.77;;;;;;;-145.69;100.00;52656.28;5120513;28;20292;-84
2023/02/03 00:24:03;;;;;;;3.03;0.93;;;;;;;-145.69;100.00;52630.53;5120688;28;20229;-85
2023/02/03 00:26:32;;;;;;;2.83;0.87;;;;;;;-145.69;100.00;52622.63;5120567;28;20197;-84
2023/02/03 00:29:00;;;;;;;1.23;0.90;;;;;;;-145.69;100.00;52658.28;5120198;28;20557;-84
2023/02/03 00:31:26;;;;;;;0.90;0.77;;;;;;;-145.69;100.00;52618.66;5120349;28;20628;-83
2023/02/03 00:33:57;;;;;;;1.20;0.80;;;;;;;-145.69;100.00;52634.50;5120290;28;20193;-83
2023/02/03 00:36:24;;;;;;;4.33;0.80;;;;;;;-145.69;100.00;52624.59;5120076;27;20201;-83
2023/02/03 00:38:55;;;;;;;2.93;0.90;;;;;;;-145.69;100.00;52646.41;5120310;28;20236;-84
2023/02/03 00:41:23;;;;;;;1.90;0.70;;;;;;;-145.69;100.00;52638.47;5120202;27;20204;-83
2023/02/03 00:43:50;;;;;;;0.97;0.70;;;;;;;-145.69;100.00;52602.81;5120695;28;20197;-84
2023/02/03 00:46:16;;;;;;;1.30;0.80;;;;;;;-145.69;100.00;52650.34;5120490;28;20301;-85
2023/02/03 00:48:43;;;;;;;0.90;0.73;;;;;;;-145.69;100.00;52676.09;5120967;28;20201;-84
2023/02/03 00:51:09;;;;;;;0.97;0.73;;;;;;;-145.69;100.00;52630.53;5120846;28;20208;-85
2023/02/03 00:53:37;;;;;;;1.17;1.00;;;;;;;-145.69;100.00;52622.63;5120847;28;20198;-85
2023/02/03 00:56:11;;;;;;;3.27;0.80;;;;;;;-145.69;100.00;52604.81;5120655;28;20225;-83
2023/02/03 00:58:38;;;;;;;1.70;0.93;;;;;;;-145.69;100.00;52626.59;5119675;27;20268;-83
2023/02/03 01:01:05;;;;;;;1.77;0.90;;;;;;;-145.69;100.00;52624.59;5120064;27;20296;-83
2023/02/03 01:03:31;;;;;;;0.60;0.60;;;;;;;-145.69;100.00;52648.38;5119404;28;20690;-82
2023/02/03 01:06:09;;;;;;;1.53;0.87;;;;;;;-145.69;100.00;52612.72;5119937;27;20555;-82
2023/02/03 01:08:35;;;;;;;2.77;0.80;;;;;;;-145.69;100.00;52646.41;5120128;28;20208;-84
2023/02/03 01:11:07;;;;;;;1.03;0.90;;;;;;;-145.69;100.00;52610.75;5119037;28;20667;-83
2023/02/03 01:13:34;;;;;;;0.70;0.70;;;;;;;-145.69;100.00;52630.53;5115926;28;20197;-82
2023/02/03 01:16:01;;;;;;;0.80;0.80;;;;;;;-145.69;100.00;52664.22;5116458;28;20194;-82
2023/02/03 01:18:30;;;;;;;1.50;0.90;;;;;;;-145.69;100.00;52632.53;5116066;28;20231;-83
2023/02/03 01:20:56;;;;;;;3.13;1.17;;;;;;;-145.69;100.00;52646.41;5116188;28;20284;-83
2023/02/03 01:23:23;;;;;;;3.07;1.07;;;;;;;-145.69;100.00;52630.53;5116420;28;20652;-83
2023/02/03 01:25:49;;;;;;;1.33;1.00;;;;;;;-145.69;100.00;52662.22;5116230;28;20194;-83
2023/02/03 01:28:17;;;;;;;3.43;1.30;;;;;;;-145.69;100.00;52618.66;5115952;28;20201;-83
2023/02/03 01:30:44;;;;;;;3.23;1.00;;;;;;;-145.69;100.00;52634.50;5116147;28;20201;-83
2023/02/03 01:33:10;;;;;;;2.10;1.10;;;;;;;-145.69;100.00;52616.69;5116223;28;20364;-83
2023/02/03 01:35:37;;;;;;;1.27;0.80;;;;;;;-145.69;100.00;52654.31;5116475;28;20201;-84
2023/02/03 01:38:03;;;;;;;1.93;1.00;;;;;;;-145.69;100.00;52660.25;5116283;28;20221;-84
2023/02/03 01:40:30;;;;;;;1.37;0.73;;;;;;;-145.69;100.00;52624.59;5116490;28;20208;-84
2023/02/03 01:42:56;;;;;;;2.50;0.80;;;;;;;-145.69;100.00;52622.63;5116410;28;20204;-84
2023/02/03 01:45:24;;;;;;;1.90;1.00;;;;;;;-145.69;100.00;52586.97;5116099;28;20320;-85
2023/02/03 01:47:54;;;;;;;2.30;0.93;;;;;;;-145.69;100.00;52654.31;5116292;28;20201;-83
2023/02/03 01:50:24;;;;;;;1.03;0.93;;;;;;;-145.69;100.00;52620.66;5116284;28;20552;-83
2023/02/03 01:52:56;;;;;;;1.63;0.90;;;;;;;-145.69;100.00;52618.66;5116228;28;20284;-85
2023/02/03 01:55:27;;;;;;;1.47;0.90;;;;;;;-145.69;100.00;52664.22;5116838;28;20661;-84
2023/02/03 01:57:58;;;;;;;1.50;1.10;;;;;;;-145.69;100.00;52656.28;5116126;28;20702;-84
2023/02/03 02:00:26;;;;;;;0.93;0.80;;;;;;;-145.69;100.00;52642.44;5116159;28;20209;-84
2023/02/03 02:02:56;;;;;;;2.20;0.90;;;;;;;-145.69;100.00;52654.31;5115926;28;20212;-83
2023/02/03 02:05:27;;;;;;;2.50;1.00;;;;;;;-145.69;100.00;52618.66;5115862;28;20205;-84
2023/02/03 02:07:57;;;;;;;2.47;0.90;;;;;;;-145.69;100.00;52602.81;5115572;28;20202;-83
2023/02/03 02:10:24;;;;;;;2.53;0.83;;;;;;;-145.69;100.00;52638.47;5115656;28;20292;-84
2023/02/03 02:12:51;;;;;;;0.90;0.70;;;;;;;-145.69;100.00;52654.31;5115703;28;20545;-84
2023/02/03 02:15:19;;;;;;;1.00;0.83;;;;;;;-145.69;100.00;52622.63;5115631;28;20200;-84
2023/02/03 02:18:01;;;;;;;2.07;0.80;;;;;;;-145.69;100.00;52662.22;5115375;28;20202;-83
2023/02/03 02:21:11;;;;;;;0.77;0.77;;;;;;;-145.69;100.00;52618.66;5115291;28;20198;-83
2023/02/03 02:23:59;;;;;;;1.17;0.80;;;;;;;-145.69;100.00;52638.47;5115194;28;20644;-84
2023/02/03 02:27:00;;;;;;;1.60;0.90;;;;;;;-145.69;100.00;52680.06;5115107;28;20293;-83
2023/02/03 02:30:00;;;;;;;2.13;0.80;;;;;;;-145.69;100.00;52662.22;5109055;28;20197;-83
2023/02/03 02:32:37;;;;;;;1.73;0.77;;;;;;;-145.69;100.00;52646.41;5114952;28;20194;-83
2023/02/03 02:35:13;;;;;;;0.70;0.70;;;;;;;-145.69;100.00;52636.50;5115240;28;20199;-83
2023/02/03 02:37:48;;;;;;;1.50;0.70;;;;;;;-145.69;100.00;52654.31;5115323;28;20197;-84
2023/02/03 02:40:23;;;;;;;0.87;0.80;;;;;;;-145.69;100.00;52632.53;5115619;28;20200;-84
2023/02/03 02:43:01;;;;;;;0.80;0.80;;;;;;;-145.69;100.00;52664.22;5115140;28;20205;-84
2023/02/03 02:45:34;;;;;;;1.67;0.73;;;;;;;-145.69;100.00;52650.34;5115077;28;20691;-83
2023/02/03 02:48:07;;;;;;;1.30;0.60;;;;;;;-145.69;100.00;52654.31;5115622;28;20204;-83
2023/02/03 02:50:39;;;;;;;1.20;0.83;;;;;;;-145.69;100.00;52654.31;5115133;28;20193;-84
2023/02/03 02:53:08;;;;;;;3.30;0.90;;;;;;;-145.69;100.00;52638.47;5114820;28;20208;-83
2023/02/03 02:55:40;;;;;;;0.80;0.80;;;;;;;-145.69;100.00;52614.72;5114632;28;20281;-83
2023/02/03 02:58:10;;;;;;;1.10;0.60;;;;;;;-145.69;100.00;52654.31;5114422;28;20220;-84
2023/02/03 03:00:39;;;;;;;2.10;0.80;;;;;;;-145.69;100.00;52652.34;5114390;28;20204;-83
2023/02/03 03:03:18;;;;;;;2.53;0.77;;;;;;;-145.69;100.00;52602.81;5114603;28;20201;-84
2023/02/03 03:05:50;;;;;;;2.03;0.80;;;;;;;-145.69;100.00;52626.59;5114305;28;20213;-82
2023/02/03 03:08:20;;;;;;;0.90;0.90;;;;;;;-145.69;100.00;52630.53;5114329;28;20198;-82
2023/02/03 03:10:47;;;;;;;0.67;0.67;;;;;;;-145.69;100.00;52628.56;5114534;28;20201;-84
2023/02/03 03:13:21;;;;;;;3.43;1.23;;;;;;;-145.69;100.00;52650.34;5114522;28;20204;-84
2023/02/03 03:15:50;;;;;;;1.10;0.70;;;;;;;-145.69;100.00;52642.44;5114799;28;20197;-84
2023/02/03 03:18:24;;;;;;;0.70;0.70;;;;;;;-145.69;100.00;52624.59;5114458;28;20225;-84
2023/02/03 03:20:53;;;;;;;1.20;0.80;;;;;;;-145.69;100.00;52616.69;5114259;28;20258;-84
2023/02/03 03:23:25;;;;;;;3.47;1.40;;;;;;;-145.69;100.00;52658.28;5114740;28;20197;-84
2023/02/03 03:25:58;;;;;;;0.80;0.80;;;;;;;-145.69;100.00;52654.31;5114201;28;21435;-83
2023/02/03 03:28:30;;;;;;;2.40;0.70;;;;;;;-145.69;100.00;52630.53;5113840;28;20552;-84
2023/02/03 03:30:57;;;;;;;0.67;0.67;;;;;;;-145.69;100.00;52652.34;5114394;28;20200;-83
2023/02/03 03:33:27;;;;;;;0.60;0.60;;;;;;;-145.69;100.00;52614.72;5114053;28;20537;-84
2023/02/03 03:35:59;;;;;;;4.17;0.80;;;;;;;-145.69;100.00;52628.56;5113701;28;20200;-84
2023/02/03 03:38:32;;;;;;;2.00;0.70;;;;;;;-145.69;100.00;52628.56;5114020;28;20221;-83
2023/02/03 03:41:03;;;;;;;1.37;1.00;;;;;;;-145.69;100.00;52660.25;5114198;28;20648;-84
2023/02/03 03:43:35;;;;;;;0.90;0.87;;;;;;;-145.69;100.00;52680.06;5114290;28;20205;-84
2023/02/03 03:46:07;;;;;;;0.93;0.80;;;;;;;-145.69;100.00;52654.31;5114277;28;20224;-85
2023/02/03 03:48:41;;;;;;;1.57;0.80;;;;;;;-145.69;100.00;52628.56;5114156;28;20216;-83
2023/02/03 03:51:13;;;;;;;1.67;0.70;;;;;;;-145.69;100.00;52682.03;5109865;28;20197;-83
2023/02/03 03:53:44;;;;;;;1.63;1.00;;;;;;;-145.69;100.00;52682.03;5113820;28;20570;-83
2023/02/03 03:56:16;;;;;;;2.30;0.80;;;;;;;-145.69;100.00;52626.59;5113833;28;20204;-84
2023/02/03 03:58:46;;;;;;;0.60;0.60;;;;;;;-145.69;100.00;52640.44;5108481;28;20214;-83
2023/02/03 04:01:15;;;;;;;0.60;0.60;;;;;;;-145.69;100.00;52634.50;5113614;28;20295;-83
2023/02/03 04:03:48;;;;;;;0.97;0.80;;;;;;;-145.69;100.00;52642.44;5113697;28;20568;-82
2023/02/03 04:06:17;;;;;;;2.27;0.87;;;;;;;-145.69;100.00;52650.34;5113383;28;20204;-82
2023/02/03 04:08:44;;;;;;;2.50;0.90;;;;;;;-145.69;100.00;52666.19;5113379;28;20201;-82
2023/02/03 04:11:59;;;;;;;0.80;0.80;;;;;;;-145.69;100.00;52640.44;5113301;28;20201;-83
2023/02/03 04:13:58;;;;;;;2.47;1.00;;;;;;;-145.69;100.00;52652.34;5113084;28;20205;-83
2023/02/03 04:16:24;;;;;;;0.90;0.77;;;;;;;-145.69;100.00;52654.31;5112278;28;20648;-83
2023/02/03 04:18:52;;;;;;;0.87;0.70;;;;;;;-145.69;100.00;52632.53;5113065;28;20224;-83
2023/02/03 04:21:19;;;;;;;0.70;0.70;;;;;;;-145.69;100.00;52646.41;5113614;28;20660;-83
2023/02/03 04:23:49;;;;;;;1.40;1.07;;;;;;;-145.69;100.00;52646.41;5113287;28;20197;-83
2023/02/03 04:26:15;;;;;;;1.07;0.70;;;;;;;-145.69;100.00;52660.25;5113680;28;20201;-84
2023/02/03 04:28:43;;;;;;;0.80;0.70;;;;;;;-145.69;100.00;52634.50;5113197;28;20196;-83
2023/02/03 04:31:10;;;;;;;2.07;1.00;;;;;;;-145.69;100.00;52630.53;5113576;28;20193;-85
2023/02/03 04:33:39;;;;;;;0.70;0.70;;;;;;;-145.69;100.00;52662.22;5113414;28;20206;-83
2023/02/03 04:36:08;;;;;;;0.77;0.70;;;;;;;-145.69;100.00;52634.50;5113432;28;20205;-83
2023/02/03 04:38:34;;;;;;;1.70;0.97;;;;;;;-145.69;100.00;52614.72;5113260;28;20232;-84
2023/02/03 04:41:01;;;;;;;2.83;0.83;;;;;;;-145.69;100.00;52630.53;5113548;28;20201;-83
2023/02/03 04:43:27;;;;;;;0.60;0.60;;;;;;;-145.69;100.00;52640.44;5113414;28;20224;-83
2023/02/03 04:45:54;;;;;;;1.53;0.70;;;;;;;-145.69;100.00;52650.34;5113727;28;20237;-84
2023/02/03 04:48:23;;;;;;;2.30;0.53;;;;;;;-145.69;100.00;52656.28;5116281;28;20197;-84
2023/02/03 04:50:49;;;;;;;0.97;0.80;;;;;;;-145.69;100.00;52652.34;5116937;28;20233;-83
2023/02/03 04:53:17;;;;;;;1.03;1.00;;;;;;;-145.69;100.00;52654.31;5116815;28;20205;-83
2023/02/03 04:55:46;;;;;;;0.50;0.50;;;;;;;-145.69;100.00;52674.13;5117056;28;20201;-82
2023/02/03 04:58:21;;;;;;;1.10;0.53;;;;;;;-145.69;100.00;52662.22;5116876;28;20694;-82
2023/02/03 05:00:48;;;;;;;1.77;0.53;;;;;;;-145.69;100.00;52616.69;5116621;28;20201;-82
2023/02/03 05:03:17;;;;;;;0.50;0.50;;;;;;;-145.69;100.00;52654.31;5116561;28;20197;-83
2023/02/03 05:05:46;;;;;;;0.60;0.60;;;;;;;-145.69;100.00;52622.63;5116834;28;20235;-83
2023/02/03 05:08:12;;;;;;;0.53;0.53;;;;;;;-145.69;100.00;52656.28;5116410;28;20201;-82
2023/02/03 05:10:43;;;;;;;2.93;0.57;;;;;;;-145.69;100.00;52642.44;5116643;28;20201;-83
2023/02/03 05:13:09;;;;;;;1.37;0.60;;;;;;;-145.69;100.00;52614.72;5116646;28;20556;-84
2023/02/03 05:15:36;;;;;;;1.60;0.80;;;;;;;-145.69;100.00;52630.53;5116388;28;20194;-83
2023/02/03 05:18:02;;;;;;;2.90;0.77;;;;;;;-145.69;100.00;52634.50;5116650;28;20656;-82
2023/02/03 05:20:29;;;;;;;1.80;0.73;;;;;;;-145.69;100.00;52648.38;5115755;28;20217;-82
2023/02/03 05:22:55;;;;;;;4.03;0.70;;;;;;;-145.69;100.00;52604.81;5116441;28;20306;-83
2023/02/03 05:25:22;;;;;;;1.00;0.90;;;;;;;-145.69;100.00;52624.59;5116381;28;20197;-83
2023/02/03 05:27:52;;;;;;;1.33;0.80;;;;;;;-145.69;100.00;52630.53;5116344;28;20198;-83
2023/02/03 05:30:19;;;;;;;2.40;0.83;;;;;;;-145.69;100.00;52632.53;5116318;28;20231;-84
2023/02/03 05:32:45;;;;;;;1.03;0.73;;;;;;;-145.69;100.00;52634.50;5116325;28;20194;-83
2023/02/03 05:35:20;;;;;;;3.80;0.70;;;;;;;-145.69;100.00;52650.34;5116424;28;20280;-84
2023/02/03 05:37:47;;;;;;;2.73;0.73;;;;;;;-145.69;100.00;52620.66;5116322;28;20197;-84
2023/02/03 05:43:12;;;;;;;1.77;0.77;;;;;;;-145.69;100.00;52626.59;5073445;28;20244;-84
2023/02/03 05:45:38;;;;;;;1.23;0.70;;;;;;;-145.69;100.00;52620.66;5105756;28;20241;-83
2023/02/03 05:48:06;;;;;;;2.50;0.60;;;;;;;-145.69;100.00;52616.69;5115837;28;20198;-84
2023/02/03 05:50:34;;;;;;;1.10;0.90;;;;;;;-145.69;100.00;52628.56;5115963;28;20537;-84
2023/02/03 05:53:02;;;;;;;1.47;0.80;;;;;;;-145.69;100.00;52656.28;5117075;28;20197;-85
2023/02/03 05:55:28;;;;;;;1.60;0.67;;;;;;;-145.69;100.00;52630.53;5118259;28;20201;-85
2023/02/03 05:57:55;;;;;;;1.60;0.90;;;;;;;-145.69;100.00;52630.53;5117694;28;20657;-85
2023/02/03 06:00:23;;;;;;;1.37;0.97;;;;;;;-145.69;100.00;52636.50;5117646;28;20225;-85
2023/02/03 06:02:54;;;;;;;3.10;1.00;;;;;;;-145.69;100.00;52622.63;5118121;28;20193;-84
2023/02/03 06:05:22;;;;;;;3.73;1.40;;;;;;;-145.69;100.00;52640.44;5117509;28;20649;-84
2023/02/03 06:07:49;;;;;;;1.77;1.10;;;;;;;-145.69;100.00;52616.69;5116898;28;20205;-85
2023/02/03 06:10:17;;;;;;;3.40;1.00;;;;;;;-145.69;100.00;52594.91;5117303;28;20212;-85
2023/02/03 06:12:44;;;;;;;1.93;1.10;;;;;;;-145.69;100.00;52628.56;5117683;28;20207;-85
2023/02/03 06:15:11;;;;;;;3.13;1.23;;;;;;;-145.69;100.00;52634.50;5117587;28;20339;-85
2023/02/03 06:17:39;;;;;;;2.03;1.00;;;;;;;-145.69;100.00;52656.28;5116938;28;20233;-83
2023/02/03 06:20:07;;;;;;;2.70;1.40;;;;;;;-145.69;100.00;52622.63;5114968;27;20451;-83
2023/02/03 06:22:34;;;;;;;2.10;1.03;;;;;;;-145.69;100.00;52620.66;5115458;28;20218;-83
2023/02/03 06:25:01;;;;;;;2.13;1.00;;;;;;;-145.69;100.00;52640.44;5115168;28;20236;-83
2023/02/03 06:27:27;;;;;;;4.63;1.40;;;;;;;-145.69;100.00;52602.81;5115403;28;20533;-83
2023/02/03 06:29:55;;;;;;;4.27;1.40;;;;;;;-145.69;100.00;52642.44;5116537;28;20809;-85
2023/02/03 06:32:22;;;;;;;1.13;0.90;;;;;;;-145.69;100.00;52602.81;5117537;28;20233;-85
2023/02/03 06:34:50;;;;;;;1.20;1.00;;;;;;;-145.69;100.00;52634.50;5117011;28;20206;-85
2023/02/03 06:37:16;;;;;;;2.93;1.40;;;;;;;-145.69;100.00;52628.56;5116293;28;20240;-84
2023/02/03 06:39:43;;;;;;;4.53;1.40;;;;;;;-145.69;100.00;52648.38;5115840;28;20262;-85
2023/02/03 06:42:11;;;;;;;0.93;0.80;;;;;;;-145.69;100.00;52664.22;5115517;28;20213;-84
2023/02/03 06:44:38;;;;;;;1.40;1.10;;;;;;;-145.69;100.00;52642.44;5115487;28;20651;-85
2023/02/03 06:47:04;;;;;;;3.03;1.30;;;;;;;-145.69;100.00;52650.34;5114867;28;20253;-83
2023/02/03 06:49:31;;;;;;;3.03;1.50;;;;;;;-145.69;100.00;52658.28;5115573;28;20201;-84
2023/02/03 06:51:59;;;;;;;2.10;1.27;;;;;;;-145.69;100.00;52642.44;5115280;28;20193;-84
2023/02/03 06:54:25;;;;;;;1.90;1.20;;;;;;;-145.69;100.00;52640.44;5114858;28;20204;-83
2023/02/03 06:56:57;;;;;;;3.00;1.70;;;;;;;-145.69;100.00;52634.50;5114260;28;20627;-82
2023/02/03 06:59:24;;;;;;;2.50;1.40;;;;;;;-145.69;100.00;52626.59;5114622;28;20225;-83
2023/02/03 07:01:52;;;;;;;1.70;1.50;;;;;;;-145.69;100.00;52662.22;5114332;28;20190;-83
2023/02/03 07:04:19;;;;;;;3.67;1.43;;;;;;;-145.69;100.00;52622.63;5114879;28;20206;-83
2023/02/03 07:06:45;;;;;;;4.30;1.53;;;;;;;-145.69;100.00;52642.44;5114853;27;20213;-83
2023/02/03 07:09:16;;;;;;;1.93;1.30;;;;;;;-145.69;100.00;52666.19;5114313;28;20194;-84
2023/02/03 07:11:43;;;;;;;4.80;1.10;;;;;;;-145.69;100.00;52606.78;5114146;28;20197;-83
2023/02/03 07:14:09;;;;;;;1.83;1.13;;;;;;;-145.69;100.00;52642.44;5114318;28;20548;-83
2023/02/03 07:16:40;;;;;;;3.10;1.30;;;;;;;-145.69;100.00;52654.31;5114897;28;20197;-84
2023/02/03 07:19:06;;;;;;;2.77;1.30;;;;;;;-145.69;100.00;52670.16;5115584;28;20291;-84
2023/02/03 07:21:33;;;;;;;5.40;1.40;;;;;;;-145.69;100.00;52654.31;5114920;28;20204;-84
2023/02/03 07:24:01;;;;;;;2.93;1.30;;;;;;;-145.69;100.00;52646.41;5115499;28;20197;-84
2023/02/03 07:26:29;;;;;;;5.43;1.90;;;;;;;-145.69;100.00;52658.28;5115436;28;20236;-83
2023/02/03 07:28:58;;;;;;;3.27;2.00;;;;;;;-145.69;100.00;52618.66;5113751;28;20221;-83
2023/02/03 07:31:28;;;;;;;3.27;2.10;;;;;;;-145.69;100.00;52620.66;5114490;28;20205;-83
2023/02/03 07:33:55;;;;;;;3.00;1.30;;;;;;;-145.69;100.00;52626.59;5115042;28;20202;-84
2023/02/03 07:36:23;;;;;;;2.90;1.47;;;;;;;-145.69;100.00;52642.44;5114869;28;20193;-84
2023/02/03 07:38:49;;;;;;;2.77;1.40;;;;;;;-145.69;100.00;52630.53;5115107;28;20209;-84
2023/02/03 07:41:16;;;;;;;1.50;1.00;;;;;;;-145.69;100.00;52634.50;5114552;28;20320;-83
2023/02/03 07:43:43;;;;;;;5.70;1.57;;;;;;;-145.69;100.00;52630.53;5113582;28;20674;-83
2023/02/03 07:46:10;;;;;;;3.00;0.90;;;;;;;-145.69;100.00;52638.47;5113273;28;20233;-82
2023/02/03 07:48:39;;;;;;;1.13;1.03;;;;;;;-145.69;100.00;52658.28;5113777;28;20197;-82
2023/02/03 07:51:06;;;;;;;3.53;1.43;;;;;;;-145.69;100.00;52642.44;5113637;28;20201;-83
2023/02/03 07:53:33;;;;;;;2.87;1.20;;;;;;;-145.69;100.00;52648.38;5113309;28;20552;-83
2023/02/03 07:56:04;;;;;;;4.23;1.10;;;;;;;-145.69;100.00;52666.19;5113807;28;20193;-83
2023/02/03 07:58:31;;;;;;;2.50;1.53;;;;;;;-145.69;100.00;52626.59;5113688;28;20211;-82
2023/02/03 08:00:59;;;;;;;3.90;1.10;;;;;;;-145.69;100.00;52658.28;5113674;28;20225;-83
2023/02/03 08:03:26;;;;;;;2.20;1.07;;;;;;;-145.69;100.00;52660.25;5113592;28;20208;-82
2023/02/03 08:05:53;;;;;;;2.57;1.10;;;;;;;-145.69;100.00;52636.50;5113507;28;20198;-82
2023/02/03 08:08:19;;;;;;;2.47;1.00;;;;;;;-145.69;100.00;52684.03;5113966;28;20211;-83
2023/02/03 08:10:49;;;;;;;2.23;0.90;;;;;;;-145.69;100.00;52632.53;5114544;28;20207;-83
2023/02/03 08:13:15;;;;;;;1.00;0.90;;;;;;;-145.69;100.00;52638.47;5113803;28;20196;-82
2023/02/03 08:15:43;;;;;;;0.93;0.80;;;;;;;-145.69;100.00;52638.47;5113441;28;20204;-82
2023/02/03 08:18:11;;;;;;;2.70;0.90;;;;;;;-145.69;100.00;52606.78;5113951;28;20536;-83
2023/02/03 08:20:42;;;;;;;3.27;0.97;;;;;;;-145.69;100.00;52640.44;5113694;28;20236;-82
2023/02/03 08:23:08;;;;;;;1.83;0.90;;;;;;;-145.69;100.00;52622.63;5117905;28;20280;-83
2023/02/03 08:25:35;;;;;;;2.77;1.10;;;;;;;-145.69;100.00;52670.16;5118533;28;20204;-83
2023/02/03 08:28:01;;;;;;;1.70;1.10;;;;;;;-145.69;100.00;52602.81;5117857;28;20202;-84
2023/02/03 08:30:28;;;;;;;2.43;1.20;;;;;;;-145.69;100.00;52626.59;5118184;28;20254;-83
2023/02/03 08:32:54;;;;;;;3.33;1.50;;;;;;;-145.69;100.00;52648.38;5117302;28;20648;-83
2023/02/03 08:35:22;;;;;;;4.07;1.40;;;;;;;-145.69;100.00;52638.47;5118017;28;20197;-83
2023/02/03 08:37:49;;;;;;;1.00;0.77;;;;;;;-145.69;100.00;52634.50;5117765;28;20197;-83
2023/02/03 08:40:19;;;;;;;1.30;1.20;;;;;;;-145.69;100.00;52634.50;5117629;28;20312;-82
2023/02/03 08:42:45;;;;;;;2.00;1.10;;;;;;;-145.69;100.00;52630.53;5117396;28;20197;-82
2023/02/03 08:45:12;;;;;;;2.73;0.97;;;;;;;-145.69;100.00;52614.72;5116968;28;20315;-83
2023/02/03 08:47:39;;;;;;;2.27;0.97;;;;;;;-145.69;100.00;52624.59;5116735;28;20205;-83
2023/02/03 08:50:07;;;;;;;4.03;1.00;;;;;;;-145.69;100.00;52614.72;5117559;28;20205;-83
2023/02/03 08:52:38;;;;;;;3.60;1.00;;;;;;;-145.69;100.00;52626.59;5117837;28;20561;-83
2023/02/03 08:55:05;;;;;;;1.43;1.00;;;;;;;-145.69;100.00;52608.75;5116955;28;20201;-83
2023/02/03 08:57:35;;;;;;;2.47;1.10;;;;;;;-145.69;100.00;52638.47;5117043;28;20208;-81
2023/02/03 09:00:03;;;;;;;2.43;0.90;;;;;;;-145.69;100.00;52642.44;5117151;28;20221;-82
2023/02/03 09:02:33;;;;;;;2.77;0.90;;;;;;;-145.69;100.00;52650.34;5116522;28;20214;-83
2023/02/03 09:05:00;;;;;;;1.23;0.80;;;;;;;-145.69;100.00;52626.59;5117509;28;20186;-84
2023/02/03 09:07:31;;;;;;;2.40;1.20;;;;;;;-145.69;100.00;52622.63;5116916;28;20679;-82
2023/02/03 09:10:00;;;;;;;3.50;1.00;;;;;;;-145.69;100.00;52604.81;5117478;28;20296;-83
2023/02/03 09:12:27;;;;;;;1.80;0.90;;;;;;;-145.69;100.00;52598.84;5117503;28;20258;-82
2023/02/03 09:14:53;;;;;;;1.87;0.87;;;;;;;-145.69;100.00;52646.41;5116946;28;20202;-83
2023/02/03 09:17:26;;;;;;;1.93;1.03;;;;;;;-145.69;100.00;52638.47;5117522;28;20194;-83
2023/02/03 09:19:53;;;;;;;2.50;1.10;;;;;;;-145.69;100.00;52618.66;5115672;28;20246;-84
2023/02/03 09:22:20;;;;;;;1.23;1.10;;;;;;;-145.69;100.00;52610.75;5116411;28;20197;-83
2023/02/03 09:24:49;;;;;;;2.07;1.20;;;;;;;-145.69;100.00;52610.75;5116071;28;20193;-84
2023/02/03 09:27:17;;;;;;;5.07;1.30;;;;;;;-145.69;100.00;52590.94;5116846;28;20201;-83
2023/02/03 09:29:43;;;;;;;1.70;1.27;;;;;;;-145.69;100.00;52606.78;5117026;28;20198;-82
2023/02/03 09:32:10;;;;;;;2.03;1.23;;;;;;;-145.69;100.00;52638.47;5116454;28;20204;-83
2023/02/03 09:34:47;;;;;;;1.63;1.00;;;;;;;-145.69;100.00;52640.44;5117830;28;20591;-84
2023/02/03 09:37:14;;;;;;;0.93;0.80;;;;;;;-145.69;100.00;52626.59;5097244;28;20202;-83
2023/02/03 09:39:40;;;;;;;1.83;1.10;;;;;;;-145.69;100.00;52608.75;5096887;28;20313;-81
2023/02/03 09:42:27;;;;;;;1.83;1.10;;;;;;;-145.69;100.00;52636.50;5094838;28;20230;-82
2023/02/03 09:45:01;;;;;;;1.73;1.07;;;;;;;-145.69;100.00;52634.50;5101366;28;20225;-82
2023/02/03 09:47:35;;;;;;;3.43;1.00;;;;;;;-145.69;100.00;52618.66;5117052;28;20201;-82
2023/02/03 09:50:05;;;;;;;2.70;1.10;;;;;;;-145.69;100.00;52630.53;5114901;28;20228;-82
2023/02/03 09:52:34;;;;;;;1.30;0.90;;;;;;;-145.69;100.00;52630.53;5115255;28;20245;-80
2023/02/03 09:55:05;;;;;;;2.20;1.30;;;;;;;-145.69;100.00;52642.44;5115197;28;20193;-80
2023/02/03 09:57:40;;;;;;;3.03;0.90;;;;;;;-145.69;100.00;52624.59;5118145;28;20205;-87
2023/02/03 10:00:20;;;;;;;1.80;1.00;;;;;;;-145.69;100.00;52654.31;5116903;28;20204;-85
2023/02/03 10:02:56;;;;;;;3.17;1.00;;;;;;;-145.69;100.00;52642.44;5099169;28;20194;-84
2023/02/03 10:05:30;;;;;;;1.47;0.97;;;;;;;-145.69;100.00;52590.94;5102296;28;20230;-82
2023/02/03 10:08:07;;;;;;;1.17;1.07;;;;;;;-145.69;100.00;52618.66;5116027;28;20206;-84
2023/02/03 10:10:40;;;;;;;3.60;1.10;;;;;;;-145.69;100.00;52626.59;5116999;28;20500;-85
2023/02/03 10:13:19;;;;;;;2.10;0.93;;;;;;;-145.69;100.00;52596.88;5115751;28;20201;-83
2023/02/03 10:16:25;;;;;;;3.80;1.30;;;;;;;-145.69;100.00;52620.66;5119637;28;20208;-84
2023/02/03 10:18:58;;;;;;;1.20;1.00;;;;;;;-145.69;100.00;52628.56;5121140;27;20288;-85
2023/02/03 10:21:35;;;;;;;1.80;1.10;;;;;;;-145.69;100.00;52610.75;5121550;28;20227;-84
2023/02/03 10:24:06;;;;;;;3.07;1.10;;;;;;;-145.69;100.00;52598.84;5120162;28;20204;-84
2023/02/03 10:26:32;;;;;;;3.73;1.03;;;;;;;-145.69;100.00;52614.72;5119818;28;20271;-85
2023/02/03 10:29:12;;;;;;;1.03;0.90;;;;;;;-145.69;100.00;52618.66;5122364;28;20630;-85
2023/02/03 10:31:38;;;;;;;1.63;0.90;;;;;;;-145.69;100.00;52606.78;5120007;28;20201;-84
2023/02/03 10:34:13;;;;;;;1.00;0.90;;;;;;;-145.69;100.00;52596.88;5100393;28;20194;-85
2023/02/03 10:36:55;;;;;;;1.53;0.83;;;;;;;-145.69;100.00;52634.50;5117098;28;20200;-85
2023/02/03 10:39:30;;;;;;;1.20;0.90;;;;;;;-145.69;100.00;52662.22;5119019;28;20232;-83
2023/02/03 10:42:05;;;;;;;2.17;1.00;;;;;;;-145.69;100.00;52626.59;5114711;28;20229;-83
2023/02/03 10:44:38;;;;;;;1.70;1.00;;;;;;;-145.69;100.00;52620.66;5114239;28;20203;-82
2023/02/03 10:47:20;;;;;;;5.53;1.00;;;;;;;-145.69;100.00;52602.81;5113920;28;20233;-79
2023/02/03 10:49:48;;;;;;;1.00;0.87;;;;;;;-145.69;100.00;52610.75;5114642;28;20198;-85
2023/02/03 10:52:29;;;;;;;2.03;1.20;;;;;;;-145.69;100.00;52618.66;5115196;28;20664;-80
2023/02/03 10:54:59;;;;;;;1.80;1.40;;;;;;;-145.69;100.00;52586.97;5114330;28;20237;-80
2023/02/03 10:57:28;;;;;;;1.10;1.00;;;;;;;-145.69;100.00;52636.50;5113729;27;20933;-81
2023/02/03 11:00:07;;;;;;;1.50;0.90;;;;;;;-145.69;100.00;52596.88;5114388;28;20602;-82
2023/02/03 11:02:37;;;;;;;2.53;0.70;;;;;;;-145.69;100.00;52614.72;5114286;28;20557;-82
2023/02/03 11:05:18;;;;;;;0.97;0.80;;;;;;;-145.69;100.00;52602.81;5109252;28;20221;-82
2023/02/03 11:07:51;;;;;;;2.73;1.53;;;;;;;-145.69;100.00;52634.50;5108004;28;20235;-81
2023/02/03 11:10:34;;;;;;;1.25;0.70;;;;;;;-145.69;100.00;52594.91;5113428;28;20492;-81
2023/02/03 11:13:26;;;;;;;0.90;0.90;;;;;;;-145.69;100.00;52610.75;5113518;28;20626;-81
2023/02/03 11:15:59;;;;;;;0.60;0.60;;;;;;;-145.69;100.00;52610.75;5106608;28;20212;-81
2023/02/03 11:18:35;;;;;;;1.47;0.60;;;;;;;-145.69;100.00;52598.84;5113041;28;20197;-82
2023/02/03 11:21:11;;;;;;;1.73;0.80;;;;;;;-145.69;100.00;52614.72;5110478;28;20227;-82
2023/02/03 11:23:45;;;;;;;0.93;0.80;;;;;;;-145.69;100.00;52590.94;5113763;28;20201;-82
2023/02/03 11:26:32;;;;;;;0.60;0.60;;;;;;;-145.69;100.00;52581.03;5113687;28;20207;-80